createdAt,value
2023-04-12T00:01:18.045Z,9.50
2023-04-12T00:03:50.681Z,9.23
2023-04-12T00:06:19.314Z,9.32
2023-04-12T00:08:47.115Z,10.57
2023-04-12T00:11:14.325Z,9.10
2023-04-12T00:13:41.439Z,9.18
2023-04-12T00:16:09.563Z,9.98
2023-04-12T00:18:36.515Z,10.25
2023-04-12T00:21:03.714Z,8.70
2023-04-12T00:23:31.098Z,10.18
2023-04-12T00:25:58.233Z,8.75
2023-04-12T00:28:25.168Z,8.77
2023-04-12T00:30:52.197Z,9.70
2023-04-12T00:33:19.075Z,9.13
2023-04-12T00:35:46.394Z,9.25
2023-04-12T00:40:43.974Z,9.40
2023-04-12T00:43:15.648Z,9.57
2023-04-12T00:45:42.915Z,9.65
2023-04-12T00:48:10.789Z,9.88
2023-04-12T00:50:37.844Z,9.82
2023-04-12T00:53:05.095Z,10.20
2023-04-12T00:55:32.270Z,9.93
2023-04-12T00:57:59.476Z,9.52
2023-04-12T01:00:27.454Z,9.70
2023-04-12T01:02:54.941Z,9.93
2023-04-12T01:05:23.859Z,9.93
2023-04-12T01:08:07.777Z,9.75
2023-04-12T01:11:14.115Z,9.25
2023-04-12T01:14:03.593Z,9.85
2023-04-12T01:16:46.571Z,10.73
2023-04-12T01:19:35.992Z,9.93
2023-04-12T01:22:09.655Z,11.17
2023-04-12T01:24:49.159Z,9.88
2023-04-12T01:27:45.292Z,10.30
2023-04-12T01:30:15.232Z,10.38
2023-04-12T01:32:51.354Z,10.52
2023-04-12T01:35:21.709Z,10.15
2023-04-12T01:37:48.917Z,10.75
2023-04-12T01:40:18.689Z,10.15
2023-04-12T01:42:46.266Z,10.23
2023-04-12T01:45:13.188Z,9.80
2023-04-12T01:47:40.262Z,10.00
2023-04-12T01:50:22.529Z,10.75
2023-04-12T01:53:14.315Z,10.77
2023-04-12T01:55:45.969Z,9.65
2023-04-12T01:58:15.430Z,10.43
2023-04-12T02:00:45.195Z,11.05
2023-04-12T02:03:13.849Z,11.27
2023-04-12T02:05:41.748Z,10.00
2023-04-12T02:08:09.004Z,10.43
2023-04-12T02:10:39.793Z,10.05
2023-04-12T02:13:07.194Z,10.40
2023-04-12T02:15:34.392Z,10.93
2023-04-12T02:18:01.720Z,10.20
2023-04-12T02:20:29.414Z,12.00
2023-04-12T02:22:57.124Z,11.38
2023-04-12T02:25:24.167Z,10.32
2023-04-12T02:27:51.383Z,10.93
2023-04-12T02:30:18.927Z,11.45
2023-04-12T02:32:51.543Z,11.68
2023-04-12T02:35:25.140Z,11.45
2023-04-12T02:37:58.545Z,10.80
2023-04-12T02:40:30.104Z,10.18
2023-04-12T02:42:57.455Z,10.63
2023-04-12T02:45:26.019Z,10.65
2023-04-12T02:47:53.543Z,11.70
2023-04-12T02:50:25.324Z,11.45
2023-04-12T02:53:00.181Z,11.73
2023-04-12T02:55:27.379Z,10.63
2023-04-12T02:57:55.162Z,11.13
2023-04-12T03:00:24.695Z,10.77
2023-04-12T03:02:59.215Z,11.27
2023-04-12T03:05:29.287Z,11.70
2023-04-12T03:07:57.008Z,10.82
2023-04-12T03:10:36.584Z,12.25
2023-04-12T03:13:05.097Z,12.90
2023-04-12T03:15:50.177Z,12.57
2023-04-12T03:18:21.193Z,12.40
2023-04-12T03:20:50.615Z,13.00
2023-04-12T03:23:17.747Z,13.20
2023-04-12T03:25:49.076Z,12.68
2023-04-12T03:28:34.877Z,14.05
2023-04-12T03:31:05.064Z,13.23
2023-04-12T03:33:41.642Z,14.18
2023-04-12T03:36:19.091Z,15.43
2023-04-12T03:38:52.105Z,14.10
2023-04-12T03:41:23.610Z,13.75
2023-04-12T03:43:57.105Z,15.07
2023-04-12T03:46:25.603Z,14.35
2023-04-12T03:48:57.610Z,14.05
2023-04-12T03:51:26.892Z,14.75
2023-04-12T03:54:00.148Z,14.68
2023-04-12T03:56:27.379Z,14.68
2023-04-12T03:58:57.920Z,14.10
2023-04-12T04:01:26.297Z,15.43
2023-04-12T04:03:54.808Z,15.27
2023-04-12T04:06:26.855Z,14.93
2023-04-12T04:08:57.863Z,14.45
2023-04-12T04:11:27.293Z,14.73
2023-04-12T04:14:03.186Z,13.85
2023-04-12T04:16:31.025Z,13.32
2023-04-12T04:19:00.994Z,14.20
2023-04-12T04:21:30.589Z,14.77
2023-04-12T04:24:02.398Z,15.27
2023-04-12T04:26:34.517Z,13.00
2023-04-12T04:29:09.828Z,14.82
2023-04-12T04:31:39.397Z,13.30
2023-04-12T04:34:09.492Z,14.65
2023-04-12T04:36:44.002Z,13.38
2023-04-12T04:39:13.456Z,15.45
2023-04-12T04:41:44.881Z,14.10
2023-04-12T04:44:18.838Z,13.85
2023-04-12T04:46:54.342Z,14.00
2023-04-12T04:49:21.330Z,14.07
2023-04-12T04:51:48.719Z,14.30
2023-04-12T04:54:16.859Z,12.77
2023-04-12T04:56:44.370Z,13.60
2023-04-12T04:59:17.952Z,12.75
2023-04-12T05:01:45.298Z,12.20
2023-04-12T05:04:15.712Z,12.27
2023-04-12T05:06:47.213Z,11.38
2023-04-12T05:09:18.138Z,11.55
2023-04-12T05:11:50.793Z,11.77
2023-04-12T05:14:18.042Z,11.75
2023-04-12T05:16:45.053Z,10.82
2023-04-12T05:19:12.299Z,10.55
2023-04-12T05:21:40.451Z,9.25
2023-04-12T05:24:07.849Z,10.77
2023-04-12T05:26:37.214Z,9.52
2023-04-12T05:29:10.178Z,8.48
2023-04-12T05:31:37.246Z,7.97
2023-04-12T05:34:07.923Z,8.65
2023-04-12T05:36:41.087Z,8.00
2023-04-12T05:39:08.238Z,7.88
2023-04-12T05:41:36.374Z,8.48
2023-04-12T05:44:03.925Z,8.05
2023-04-12T05:46:32.381Z,7.95
2023-04-12T05:48:59.750Z,7.15
2023-04-12T05:51:39.830Z,7.15
2023-04-12T05:54:10.755Z,6.95
2023-04-12T05:56:38.396Z,6.55
2023-04-12T05:59:05.418Z,5.75
2023-04-12T06:01:33.476Z,5.65
2023-04-12T06:04:06.101Z,6.18
2023-04-12T06:06:33.739Z,6.50
2023-04-12T06:09:04.963Z,6.65
2023-04-12T06:14:02.927Z,5.45
2023-04-12T06:16:30.168Z,6.10
2023-04-12T06:18:58.059Z,5.65
2023-04-12T06:21:26.973Z,6.13
2023-04-12T06:23:54.195Z,6.13
2023-04-12T06:26:21.159Z,6.65
2023-04-12T06:28:48.626Z,6.40
2023-04-12T06:31:17.238Z,6.15
2023-04-12T06:33:44.875Z,6.15
2023-04-12T06:36:12.766Z,5.03
2023-04-12T06:38:40.113Z,5.97
2023-04-12T06:41:07.313Z,5.07
2023-04-12T06:43:34.418Z,4.97
2023-04-12T06:46:03.129Z,5.68
2023-04-12T06:48:30.814Z,4.22
2023-04-12T06:50:57.804Z,4.32
2023-04-12T06:53:25.005Z,4.20
2023-04-12T06:55:55.796Z,4.68
2023-04-12T06:58:23.061Z,3.88
2023-04-12T07:00:50.151Z,5.20
2023-04-12T07:03:17.250Z,4.20
2023-04-12T07:05:45.593Z,4.50
2023-04-12T07:08:16.055Z,4.60
2023-04-12T07:10:43.167Z,4.55
2023-04-12T07:13:10.122Z,4.45
2023-04-12T07:15:37.439Z,4.55
2023-04-12T07:18:04.669Z,3.95
2023-04-12T07:20:31.750Z,4.35
2023-04-12T07:22:58.750Z,4.18
2023-04-12T07:25:27.998Z,4.95
2023-04-12T07:27:55.051Z,4.93
2023-04-12T07:30:22.046Z,4.53
2023-04-12T07:32:49.339Z,4.40
2023-04-12T07:35:16.564Z,4.45
2023-04-12T07:37:43.542Z,4.55
2023-04-12T07:40:10.821Z,4.70
2023-04-12T07:42:38.927Z,4.75
2023-04-12T07:45:06.838Z,4.63
2023-04-12T07:47:34.302Z,4.15
2023-04-12T07:50:02.016Z,3.95
2023-04-12T07:52:30.471Z,3.88
2023-04-12T07:54:57.807Z,3.95
2023-04-12T07:57:26.395Z,3.97
2023-04-12T07:59:53.512Z,3.35
2023-04-12T08:02:29.527Z,3.08
2023-04-12T08:04:57.645Z,3.25
2023-04-12T08:07:25.806Z,2.92
2023-04-12T08:09:53.185Z,2.80
2023-04-12T08:12:21.299Z,3.08
2023-04-12T08:14:48.449Z,3.35
2023-04-12T08:17:16.687Z,2.92
2023-04-12T08:19:44.096Z,2.58
2023-04-12T08:22:13.496Z,2.65
2023-04-12T08:24:40.903Z,2.88
2023-04-12T08:27:07.907Z,2.50
2023-04-12T08:29:34.964Z,2.97
2023-04-12T08:32:02.426Z,2.30
2023-04-12T08:34:29.525Z,2.47
2023-04-12T08:37:00.278Z,2.60
2023-04-12T08:39:27.431Z,2.63
2023-04-12T08:41:57.019Z,2.22
2023-04-12T08:44:38.571Z,2.33
2023-04-12T08:47:10.784Z,2.70
2023-04-12T08:49:38.735Z,2.13
2023-04-12T08:52:08.321Z,2.15
2023-04-12T08:57:09.390Z,1.85
2023-04-12T08:59:43.573Z,1.90
2023-04-12T09:02:11.241Z,2.00
2023-04-12T09:05:09.871Z,2.28
2023-04-12T09:07:44.992Z,2.08
2023-04-12T09:10:31.235Z,2.08
2023-04-12T09:12:58.653Z,1.90
2023-04-12T09:15:25.829Z,1.90
2023-04-12T09:18:08.867Z,1.83
2023-04-12T09:20:37.124Z,1.77
2023-04-12T09:23:21.425Z,2.22
2023-04-12T09:25:51.765Z,1.80
2023-04-12T09:28:26.048Z,1.90
2023-04-12T09:30:55.033Z,1.80
2023-04-12T09:33:32.314Z,2.33
2023-04-12T09:36:04.731Z,1.60
2023-04-12T09:38:33.569Z,1.50
2023-04-12T09:41:26.787Z,2.10
2023-04-12T09:43:54.608Z,1.45
2023-04-12T09:46:22.931Z,1.85
2023-04-12T09:48:59.337Z,1.50
2023-04-12T09:51:29.127Z,1.38
2023-04-12T09:53:59.726Z,2.40
2023-04-12T09:56:46.353Z,1.80
2023-04-12T09:59:16.808Z,1.55
2023-04-12T10:01:44.298Z,1.70
2023-04-12T10:04:11.789Z,1.50
2023-04-12T10:06:39.113Z,1.90
2023-04-12T10:09:06.893Z,1.60
2023-04-12T10:11:34.646Z,1.30
2023-04-12T10:14:03.398Z,1.33
2023-04-12T10:16:33.770Z,1.20
2023-04-12T10:19:04.440Z,1.38
2023-04-12T10:21:31.878Z,1.30
2023-04-12T10:23:59.218Z,0.90
2023-04-12T10:26:26.771Z,1.17
2023-04-12T10:29:32.199Z,0.98
2023-04-12T10:32:20.519Z,1.50
2023-04-12T10:34:56.595Z,1.20
2023-04-12T10:38:02.632Z,1.50
2023-04-12T10:40:31.548Z,1.50
2023-04-12T10:43:34.171Z,1.15
2023-04-12T10:46:04.479Z,1.30
2023-04-12T10:48:31.594Z,1.00
2023-04-12T10:51:23.535Z,1.30
2023-04-12T10:53:51.930Z,1.38
2023-04-12T10:56:32.879Z,1.33
2023-04-12T10:59:01.960Z,1.15
2023-04-12T11:01:39.772Z,1.13
2023-04-12T11:04:13.971Z,1.15
2023-04-12T11:06:54.776Z,1.23
2023-04-12T11:09:44.482Z,1.27
2023-04-12T11:12:35.144Z,1.08
2023-04-12T11:15:04.301Z,1.10
2023-04-12T11:17:54.489Z,1.20
2023-04-12T11:20:21.803Z,1.40
2023-04-12T11:22:51.325Z,1.30
2023-04-12T11:25:20.959Z,1.15
2023-04-12T11:27:52.539Z,1.10
2023-04-12T11:30:20.331Z,1.45
2023-04-12T11:32:47.914Z,1.02
2023-04-12T11:35:16.426Z,1.38
2023-04-12T11:37:44.566Z,1.60
2023-04-12T11:40:11.828Z,1.10
2023-04-12T11:42:40.206Z,1.20
2023-04-12T11:45:15.801Z,1.35
2023-04-12T11:47:46.143Z,1.05
2023-04-12T11:50:13.278Z,1.33
2023-04-12T11:52:41.383Z,1.30
2023-04-12T11:55:11.363Z,1.23
2023-04-12T11:57:39.697Z,1.60
2023-04-12T12:00:07.353Z,1.20
2023-04-12T12:02:46.608Z,1.33
2023-04-12T12:05:24.058Z,1.42
2023-04-12T12:07:52.865Z,1.20
2023-04-12T12:10:37.830Z,1.23
2023-04-12T12:13:14.538Z,1.30
2023-04-12T12:15:45.805Z,1.40
2023-04-12T12:18:13.310Z,1.13
2023-04-12T12:20:49.034Z,1.35
2023-04-12T12:23:32.679Z,1.23
2023-04-12T12:26:16.906Z,1.30
2023-04-12T12:28:53.564Z,1.15
2023-04-12T12:31:24.795Z,1.50
2023-04-12T12:33:57.210Z,1.00
2023-04-12T12:36:35.097Z,1.33
2023-04-12T12:39:12.676Z,1.25
2023-04-12T12:41:40.610Z,1.20
2023-04-12T12:44:08.221Z,1.42
2023-04-12T12:49:06.166Z,1.13
2023-04-12T12:51:33.437Z,1.20
2023-04-12T12:54:01.196Z,1.40
2023-04-12T12:56:28.403Z,1.40
2023-04-12T12:58:55.537Z,1.23
2023-04-12T13:01:22.655Z,1.30
2023-04-12T13:03:50.145Z,1.05
2023-04-12T13:06:17.250Z,1.35
2023-04-12T13:08:44.396Z,1.50
2023-04-12T13:11:11.334Z,1.45
2023-04-12T13:13:38.383Z,1.67
2023-04-12T13:16:06.514Z,1.48
2023-04-12T13:18:33.467Z,1.20
2023-04-12T13:21:00.616Z,1.20
2023-04-12T13:23:27.682Z,1.02
2023-04-12T13:25:54.610Z,0.98
2023-04-12T13:28:21.977Z,1.10
2023-04-12T13:30:48.925Z,1.30
2023-04-12T13:33:20.065Z,1.40
2023-04-12T13:35:48.142Z,1.40
2023-04-12T13:38:15.499Z,1.65
2023-04-12T13:40:42.742Z,0.90
2023-04-12T13:43:09.818Z,1.40
2023-04-12T13:45:36.899Z,1.35
2023-04-12T13:48:04.055Z,1.35
2023-04-12T13:50:31.458Z,1.30
2023-04-12T13:52:58.518Z,1.60
2023-04-12T13:55:25.531Z,1.10
2023-04-12T13:57:52.571Z,1.08
2023-04-12T14:00:20.354Z,1.42
2023-04-12T14:02:47.297Z,1.20
2023-04-12T14:05:14.387Z,1.33
2023-04-12T14:07:41.263Z,1.30
2023-04-12T14:10:08.848Z,1.27
2023-04-12T14:12:36.180Z,1.15
2023-04-12T14:15:03.814Z,1.25
2023-04-12T14:17:32.764Z,1.00
2023-04-12T14:20:00.808Z,1.15
2023-04-12T14:22:28.302Z,1.30
2023-04-12T14:24:55.549Z,1.00
2023-04-12T14:27:22.602Z,1.20
2023-04-12T14:29:49.827Z,1.30
2023-04-12T14:32:17.175Z,1.05
2023-04-12T14:34:44.869Z,1.20
2023-04-12T14:37:11.978Z,1.00
2023-04-12T14:39:38.963Z,1.05
2023-04-12T14:42:06.256Z,1.10
2023-04-12T14:44:33.278Z,1.30
2023-04-12T14:47:00.272Z,1.38
2023-04-12T14:49:28.525Z,0.82
2023-04-12T14:51:57.223Z,0.90
2023-04-12T14:54:24.148Z,1.10
2023-04-12T14:56:55.217Z,1.30
2023-04-12T14:59:23.514Z,1.48
2023-04-12T15:01:52.409Z,1.40
2023-04-12T15:04:20.166Z,1.20
2023-04-12T15:06:47.455Z,1.15
2023-04-12T15:09:17.689Z,1.00
2023-04-12T15:11:47.811Z,1.35
2023-04-12T15:14:20.925Z,1.20
2023-04-12T15:16:51.449Z,1.23
2023-04-12T15:19:22.916Z,1.10
2023-04-12T15:21:51.772Z,1.20
2023-04-12T15:24:19.554Z,1.48
2023-04-12T15:26:48.636Z,1.27
2023-04-12T15:31:43.962Z,0.88
2023-04-12T15:34:11.550Z,1.40
2023-04-12T15:36:40.082Z,1.52
2023-04-12T15:39:07.222Z,0.90
2023-04-12T15:41:38.697Z,1.10
2023-04-12T15:44:07.361Z,1.27
2023-04-12T15:46:35.399Z,1.20
2023-04-12T15:49:02.970Z,1.10
2023-04-12T15:51:30.368Z,1.67
2023-04-12T15:53:57.408Z,1.10
2023-04-12T15:56:25.581Z,1.20
2023-04-12T15:58:53.702Z,1.30
2023-04-12T16:01:20.861Z,1.45
2023-04-12T16:03:49.195Z,1.30
2023-04-12T16:06:20.900Z,1.50
2023-04-12T16:08:52.506Z,1.15
2023-04-12T16:11:21.895Z,2.15
2023-04-12T16:13:49.769Z,1.25
2023-04-12T16:16:18.287Z,1.10
2023-04-12T16:18:46.450Z,1.42
2023-04-12T16:21:16.608Z,1.63
2023-04-12T16:23:44.470Z,1.70
2023-04-12T16:26:12.370Z,1.40
2023-04-12T16:28:42.442Z,1.55
2023-04-12T16:31:10.315Z,1.25
2023-04-12T16:33:37.714Z,1.60
2023-04-12T16:36:08.160Z,1.50
2023-04-12T16:38:35.273Z,1.80
2023-04-12T16:41:02.417Z,2.00
2023-04-12T16:43:29.336Z,1.85
2023-04-12T16:45:56.874Z,2.00
2023-04-12T16:48:23.710Z,2.28
2023-04-12T16:50:50.707Z,2.17
2023-04-12T16:53:17.615Z,2.13
2023-04-12T16:55:49.445Z,2.40
2023-04-12T16:58:16.850Z,2.25
2023-04-12T17:00:43.932Z,2.03
2023-04-12T17:03:12.736Z,1.75
2023-04-12T17:05:42.645Z,2.70
2023-04-12T17:08:09.853Z,2.08
2023-04-12T17:10:37.422Z,1.95
2023-04-12T17:13:05.029Z,1.88
2023-04-12T17:15:32.375Z,2.03
2023-04-12T17:18:10.007Z,2.40
2023-04-12T17:20:40.969Z,2.13
2023-04-12T17:23:10.298Z,3.05
2023-04-12T17:25:40.073Z,4.28
2023-04-12T17:28:08.594Z,3.45
2023-04-12T17:30:36.151Z,2.30
2023-04-12T17:33:03.506Z,2.15
2023-04-12T17:35:31.402Z,2.72
2023-04-12T17:37:58.439Z,3.15
2023-04-12T17:40:25.568Z,2.50
2023-04-12T17:42:52.583Z,1.95
2023-04-12T17:45:21.833Z,2.20
2023-04-12T17:47:51.605Z,2.10
2023-04-12T17:50:18.801Z,2.42
2023-04-12T17:52:46.131Z,1.98
2023-04-12T17:55:13.211Z,2.10
2023-04-12T17:57:40.839Z,2.15
2023-04-12T18:00:14.416Z,2.67
2023-04-12T18:02:43.837Z,2.28
2023-04-12T18:05:11.444Z,2.03
2023-04-12T18:07:40.145Z,1.83
2023-04-12T18:10:12.851Z,1.83
2023-04-12T18:12:45.057Z,2.30
2023-04-12T18:15:12.701Z,2.33
2023-04-12T18:17:39.918Z,2.35
2023-04-12T18:20:10.626Z,1.95
2023-04-12T18:22:38.744Z,1.60
2023-04-12T18:25:07.580Z,1.88
2023-04-12T18:27:35.550Z,1.83
2023-04-12T18:30:05.159Z,1.80
2023-04-12T18:32:32.521Z,1.73
2023-04-12T18:34:59.567Z,2.05
2023-04-12T18:37:27.532Z,1.90
2023-04-12T18:39:55.609Z,2.15
2023-04-12T18:42:22.783Z,1.73
2023-04-12T18:44:50.330Z,1.92
2023-04-12T18:47:17.708Z,2.20
2023-04-12T18:49:45.806Z,3.35
2023-04-12T18:52:12.863Z,2.20
2023-04-12T18:54:40.053Z,4.18
2023-04-12T18:57:07.853Z,2.83
2023-04-12T18:59:35.180Z,2.28
2023-04-12T19:02:02.321Z,2.65
2023-04-12T19:04:29.708Z,4.70
2023-04-12T19:06:57.465Z,4.53
2023-04-12T19:09:24.540Z,3.35
2023-04-12T19:11:51.555Z,4.75
2023-04-12T19:14:18.579Z,3.33
2023-04-12T19:16:46.351Z,3.90
2023-04-12T19:19:13.416Z,3.35
2023-04-12T19:21:40.685Z,3.00
2023-04-12T19:24:08.075Z,3.85
2023-04-12T19:26:38.644Z,5.63
2023-04-12T19:29:06.183Z,7.40
2023-04-12T19:31:35.207Z,2.55
2023-04-12T19:34:02.817Z,2.30
2023-04-12T19:36:29.734Z,2.22
2023-04-12T19:38:56.957Z,2.97
2023-04-12T19:41:24.314Z,2.10
2023-04-12T19:43:51.444Z,2.60
2023-04-12T19:46:18.615Z,3.85
2023-04-12T19:48:46.442Z,3.13
2023-04-12T19:51:15.342Z,3.03
2023-04-12T19:53:42.813Z,3.28
2023-04-12T19:56:09.893Z,2.88
2023-04-12T19:58:37.272Z,2.97
2023-04-12T20:01:04.798Z,2.72
2023-04-12T20:03:31.900Z,2.10
2023-04-12T20:06:04.605Z,2.20
2023-04-12T20:08:32.177Z,2.50
2023-04-12T20:10:59.736Z,2.17
2023-04-12T20:13:27.316Z,2.10
2023-04-12T20:15:54.718Z,2.30
2023-04-12T20:18:21.965Z,2.25
2023-04-12T20:20:49.756Z,2.22
2023-04-12T20:23:17.156Z,5.90
2023-04-12T20:25:45.628Z,2.40
2023-04-12T20:28:13.585Z,1.90
2023-04-12T20:30:41.110Z,2.13
2023-04-12T20:33:08.792Z,2.28
2023-04-12T20:35:36.885Z,2.33
2023-04-12T20:38:04.484Z,2.20
2023-04-12T20:40:31.587Z,2.00
2023-04-12T20:42:58.611Z,2.38
2023-04-12T20:45:25.773Z,2.28
2023-04-12T20:47:53.110Z,2.55
2023-04-12T20:50:22.578Z,2.30
2023-04-12T20:52:52.206Z,2.17
2023-04-12T20:55:19.775Z,2.05
2023-04-12T20:57:46.950Z,1.70
2023-04-12T21:00:23.944Z,1.85
2023-04-12T21:02:50.984Z,1.90
2023-04-12T21:05:18.341Z,1.92
2023-04-12T21:07:46.936Z,2.10
2023-04-12T21:10:14.841Z,2.10
2023-04-12T21:12:42.796Z,2.42
2023-04-12T21:15:11.892Z,2.00
2023-04-12T21:17:39.381Z,2.33
2023-04-12T21:20:14.198Z,2.45
2023-04-12T21:22:46.878Z,2.40
2023-04-12T21:25:16.795Z,2.38
2023-04-12T21:27:46.005Z,2.33
2023-04-12T21:30:13.633Z,2.10
2023-04-12T21:32:42.847Z,2.50
2023-04-12T21:35:11.459Z,2.00
2023-04-12T21:37:39.808Z,2.22
2023-04-12T21:40:09.433Z,2.60
2023-04-12T21:42:37.308Z,1.90
2023-04-12T21:45:05.864Z,1.90
2023-04-12T21:47:33.107Z,2.08
2023-04-12T21:50:00.523Z,2.00
2023-04-12T21:52:28.059Z,2.05
2023-04-12T21:54:55.792Z,2.65
2023-04-12T21:57:22.944Z,2.03
2023-04-12T21:59:49.796Z,1.92
2023-04-12T22:02:16.808Z,2.60
2023-04-12T22:04:44.002Z,2.30
2023-04-12T22:07:13.198Z,3.03
2023-04-12T22:09:41.521Z,2.42
2023-04-12T22:12:09.240Z,1.83
2023-04-12T22:14:37.039Z,1.92
2023-04-12T22:17:06.026Z,2.47
2023-04-12T22:19:33.022Z,2.28
2023-04-12T22:22:01.576Z,1.75
2023-04-12T22:24:29.409Z,2.40
2023-04-12T22:26:57.500Z,2.00
2023-04-12T22:29:25.765Z,2.28
2023-04-12T22:31:52.862Z,2.20
2023-04-12T22:34:20.180Z,2.13
2023-04-12T22:36:51.795Z,2.08
2023-04-12T22:39:20.075Z,2.45
2023-04-12T22:41:53.120Z,2.35
2023-04-12T22:44:23.357Z,2.08
2023-04-12T22:46:54.320Z,2.03
2023-04-12T22:49:28.386Z,2.33
2023-04-12T22:51:55.851Z,2.15
2023-04-12T22:54:25.950Z,2.28
2023-04-12T22:56:54.749Z,2.20
2023-04-12T22:59:23.031Z,2.38
2023-04-12T23:01:50.439Z,2.50
2023-04-12T23:04:18.517Z,2.70
2023-04-12T23:06:46.301Z,2.17
2023-04-12T23:09:13.608Z,2.25
2023-04-12T23:11:41.757Z,2.08
2023-04-12T23:14:09.826Z,2.05
2023-04-12T23:16:42.574Z,1.88
2023-04-12T23:19:14.829Z,1.92
2023-04-12T23:21:43.080Z,2.83
2023-04-12T23:24:12.216Z,3.55
2023-04-12T23:26:39.516Z,4.75
2023-04-12T23:29:06.473Z,4.65
2023-04-12T23:31:33.882Z,5.47
2023-04-12T23:34:06.187Z,5.95
2023-04-12T23:36:34.302Z,5.80
2023-04-12T23:39:02.109Z,6.13
2023-04-12T23:41:31.624Z,5.30
2023-04-12T23:43:59.492Z,5.45
2023-04-12T23:46:27.970Z,5.88
2023-04-12T23:48:55.327Z,5.82
2023-04-12T23:51:22.753Z,5.50
2023-04-12T23:53:50.428Z,4.63
2023-04-12T23:56:17.416Z,4.88
2023-04-12T23:58:44.540Z,5.03
